Time;durP1;ratioP1;P1;durP2;ratioP2;P2;SDS_P1;SDS_P2;PMS_P1;PMS_P2;Temp;Humidity;BMP_temperature;BMP_pressure;BME280_temperature;BME280_humidity;BME280_pressure;Samples;Min_cycle;Max_cycle;Signal;HPM_P1;HPM_P2
2019/09/30 00:01:59;;;;;;;1.40;1.30;;;;;;;20.58;56.20;99492.63;;;;-52
2019/09/30 00:04:59;;;;;;;1.30;1.20;;;;;;;20.58;56.19;99506.92;;;;-53
2019/09/30 00:07:59;;;;;;;1.41;1.31;;;;;;;20.57;56.18;99503.78;;;;-52
2019/09/30 00:10:59;;;;;;;2.02;1.39;;;;;;;20.57;56.17;99514.59;;;;-52
2019/09/30 00:13:59;;;;;;;2.19;1.37;;;;;;;20.56;56.19;99523.55;;;;-52
2019/09/30 00:16:59;;;;;;;1.67;1.31;;;;;;;20.57;56.18;99542.29;;;;-52
2019/09/30 00:19:59;;;;;;;1.31;1.21;;;;;;;20.56;56.13;99546.02;;;;-52
2019/09/30 00:22:59;;;;;;;1.31;1.21;;;;;;;20.56;56.16;99558.03;;;;-49
2019/09/30 00:25:59;;;;;;;1.38;1.20;;;;;;;20.57;56.16;99573.22;;;;-49
2019/09/30 00:28:59;;;;;;;1.99;1.41;;;;;;;20.56;56.15;99568.84;;;;-60
2019/09/30 00:31:59;;;;;;;1.41;1.31;;;;;;;20.56;56.12;99578.30;;;;-49
2019/09/30 00:34:59;;;;;;;1.47;1.31;;;;;;;20.56;56.15;99583.43;;;;-53
2019/09/30 00:37:59;;;;;;;1.40;1.30;;;;;;;20.55;56.14;99596.75;;;;-52
2019/09/30 00:40:59;;;;;;;1.42;1.30;;;;;;;20.55;56.13;99604.53;;;;-52
2019/09/30 00:43:59;;;;;;;1.27;1.17;;;;;;;20.55;56.14;99618.56;;;;-52
2019/09/30 00:46:59;;;;;;;1.37;1.27;;;;;;;20.55;56.11;99608.90;;;;-52
2019/09/30 00:49:59;;;;;;;1.97;1.30;;;;;;;20.55;56.12;99620.71;;;;-52
2019/09/30 00:52:59;;;;;;;2.17;1.34;;;;;;;20.55;56.11;99617.39;;;;-52
2019/09/30 00:55:59;;;;;;;1.38;1.28;;;;;;;20.55;56.16;99611.18;;;;-53
2019/09/30 00:58:59;;;;;;;1.51;1.41;;;;;;;20.54;56.13;99613.44;;;;-52
2019/09/30 01:01:59;;;;;;;1.41;1.31;;;;;;;20.54;56.12;99621.98;;;;-52
2019/09/30 01:04:59;;;;;;;1.33;1.20;;;;;;;20.54;56.15;99622.83;;;;-52
2019/09/30 01:07:59;;;;;;;1.43;1.31;;;;;;;20.54;56.14;99630.34;;;;-60
2019/09/30 01:10:59;;;;;;;1.61;1.29;;;;;;;20.53;56.15;99637.70;;;;-60
2019/09/30 01:13:59;;;;;;;1.30;1.20;;;;;;;20.54;56.14;99640.48;;;;-60
2019/09/30 01:16:59;;;;;;;1.30;1.20;;;;;;;20.53;56.14;99635.95;;;;-49
2019/09/30 01:19:59;;;;;;;1.41;1.31;;;;;;;20.53;56.14;99644.51;;;;-49
2019/09/30 01:22:59;;;;;;;1.27;1.17;;;;;;;20.53;56.10;99646.32;;;;-49
2019/09/30 01:25:59;;;;;;;1.31;1.20;;;;;;;20.53;56.15;99651.45;;;;-51
2019/09/30 01:28:59;;;;;;;1.83;1.29;;;;;;;20.52;56.14;99639.52;;;;-52
2019/09/30 01:31:59;;;;;;;1.40;1.30;;;;;;;20.52;56.14;99647.50;;;;-51
2019/09/30 01:34:59;;;;;;;1.30;1.20;;;;;;;20.52;56.12;99655.88;;;;-51
2019/09/30 01:37:59;;;;;;;1.30;1.20;;;;;;;20.51;56.12;99649.25;;;;-51
2019/09/30 01:40:59;;;;;;;1.29;1.19;;;;;;;20.52;56.11;99641.93;;;;-50
2019/09/30 01:43:59;;;;;;;1.22;1.12;;;;;;;20.51;56.11;99654.28;;;;-49
2019/09/30 01:46:59;;;;;;;1.29;1.17;;;;;;;20.51;56.14;99661.33;;;;-49
2019/09/30 01:49:59;;;;;;;1.31;1.21;;;;;;;20.51;56.13;99665.18;;;;-49
2019/09/30 01:52:59;;;;;;;1.37;1.27;;;;;;;20.51;56.11;99658.03;;;;-51
2019/09/30 01:55:59;;;;;;;1.09;1.07;;;;;;;20.52;56.14;99658.13;;;;-52
2019/09/30 01:58:59;;;;;;;1.45;1.25;;;;;;;20.51;56.12;99673.10;;;;-49
2019/09/30 02:02:04;;;;;;;1.21;1.11;;;;;;;20.51;56.16;99674.55;;;;-51
2019/09/30 02:04:59;;;;;;;1.27;1.17;;;;;;;20.51;56.08;99675.79;;;;-52
2019/09/30 02:07:59;;;;;;;1.27;1.17;;;;;;;20.50;56.12;99679.98;;;;-60
2019/09/30 02:10:59;;;;;;;1.22;1.12;;;;;;;20.51;56.08;99686.86;;;;-61
2019/09/30 02:13:59;;;;;;;1.30;1.20;;;;;;;20.50;56.10;99681.09;;;;-60
2019/09/30 02:16:59;;;;;;;1.28;1.18;;;;;;;20.51;56.07;99690.88;;;;-60
2019/09/30 02:19:58;;;;;;;1.37;1.27;;;;;;;20.50;56.09;99693.91;;;;-61
2019/09/30 02:22:59;;;;;;;1.30;1.20;;;;;;;20.50;56.07;99698.20;;;;-52
2019/09/30 02:25:59;;;;;;;1.29;1.19;;;;;;;20.50;56.12;99695.98;;;;-51
2019/09/30 02:28:59;;;;;;;1.19;1.11;;;;;;;20.49;56.15;99708.06;;;;-51
2019/09/30 02:31:59;;;;;;;1.39;1.29;;;;;;;20.50;56.10;99715.28;;;;-60
2019/09/30 02:34:59;;;;;;;1.36;1.26;;;;;;;20.49;56.12;99717.16;;;;-60
2019/09/30 02:37:59;;;;;;;1.32;1.21;;;;;;;20.49;56.10;99719.95;;;;-61
2019/09/30 02:40:59;;;;;;;1.38;1.20;;;;;;;20.49;56.13;99726.66;;;;-60
2019/09/30 02:43:59;;;;;;;1.30;1.17;;;;;;;20.49;56.10;99740.50;;;;-52
2019/09/30 02:46:59;;;;;;;1.15;1.15;;;;;;;20.49;56.12;99740.74;;;;-52
2019/09/30 02:49:59;;;;;;;1.30;1.20;;;;;;;20.49;56.12;99742.75;;;;-49
2019/09/30 02:52:59;;;;;;;1.19;1.09;;;;;;;20.48;56.14;99749.20;;;;-49
2019/09/30 02:55:59;;;;;;;1.14;1.08;;;;;;;20.48;56.14;99761.38;;;;-49
2019/09/30 02:58:59;;;;;;;1.34;1.18;;;;;;;20.48;56.09;99765.06;;;;-61
2019/09/30 03:01:59;;;;;;;1.33;1.20;;;;;;;20.48;56.11;99762.05;;;;-61
2019/09/30 03:04:59;;;;;;;1.33;1.20;;;;;;;20.47;56.12;99762.59;;;;-60
2019/09/30 03:07:59;;;;;;;1.18;1.07;;;;;;;20.48;56.13;99772.81;;;;-49
2019/09/30 03:10:59;;;;;;;1.25;1.15;;;;;;;20.47;56.10;99778.12;;;;-52
2019/09/30 03:13:59;;;;;;;1.33;1.22;;;;;;;20.48;56.11;99783.48;;;;-49
2019/09/30 03:16:59;;;;;;;1.30;1.20;;;;;;;20.47;56.10;99778.76;;;;-49
2019/09/30 03:19:59;;;;;;;1.11;1.10;;;;;;;20.47;56.12;99786.50;;;;-53
2019/09/30 03:22:59;;;;;;;1.57;1.12;;;;;;;20.47;56.14;99786.47;;;;-60
2019/09/30 03:25:59;;;;;;;1.30;1.20;;;;;;;20.47;56.13;99788.15;;;;-60
2019/09/30 03:28:59;;;;;;;1.11;1.10;;;;;;;20.47;56.10;99787.41;;;;-60
2019/09/30 03:31:59;;;;;;;1.20;1.10;;;;;;;20.47;56.13;99795.30;;;;-52
2019/09/30 03:34:59;;;;;;;1.19;1.09;;;;;;;20.47;56.09;99791.77;;;;-52
2019/09/30 03:37:59;;;;;;;1.07;1.07;;;;;;;20.46;56.10;99794.42;;;;-49
2019/09/30 03:40:59;;;;;;;1.21;1.11;;;;;;;20.46;56.10;99792.92;;;;-49
2019/09/30 03:43:59;;;;;;;1.27;1.15;;;;;;;20.45;56.11;99789.13;;;;-49
2019/09/30 03:46:59;;;;;;;1.20;1.10;;;;;;;20.46;56.11;99784.77;;;;-49
2019/09/30 03:49:59;;;;;;;1.19;1.09;;;;;;;20.45;56.08;99785.61;;;;-49
2019/09/30 03:52:59;;;;;;;1.17;1.08;;;;;;;20.45;56.11;99782.42;;;;-51
2019/09/30 03:55:59;;;;;;;1.25;1.14;;;;;;;20.45;56.12;99787.42;;;;-52
2019/09/30 03:58:59;;;;;;;1.15;1.08;;;;;;;20.45;56.08;99788.96;;;;-52
2019/09/30 04:01:59;;;;;;;1.29;1.07;;;;;;;20.45;56.10;99787.02;;;;-49
2019/09/30 04:04:59;;;;;;;1.02;1.02;;;;;;;20.45;56.10;99788.36;;;;-52
2019/09/30 04:07:59;;;;;;;1.22;1.12;;;;;;;20.45;56.09;99793.72;;;;-59
2019/09/30 04:10:59;;;;;;;1.21;1.11;;;;;;;20.45;56.11;99797.66;;;;-51
2019/09/30 04:13:59;;;;;;;1.21;1.11;;;;;;;20.43;56.11;99801.55;;;;-52
2019/09/30 04:16:59;;;;;;;1.23;1.15;;;;;;;20.44;56.11;99807.69;;;;-49
2019/09/30 04:19:59;;;;;;;1.20;1.10;;;;;;;20.44;56.09;99811.41;;;;-52
2019/09/30 04:22:59;;;;;;;1.17;1.08;;;;;;;20.44;56.12;99819.02;;;;-60
2019/09/30 04:25:59;;;;;;;1.22;1.10;;;;;;;20.44;56.10;99811.30;;;;-49
2019/09/30 04:28:59;;;;;;;1.14;1.09;;;;;;;20.44;56.07;99820.87;;;;-50
2019/09/30 04:31:59;;;;;;;1.78;0.99;;;;;;;20.44;56.10;99826.06;;;;-49
2019/09/30 04:34:59;;;;;;;1.15;1.08;;;;;;;20.44;56.08;99832.51;;;;-61
2019/09/30 04:37:59;;;;;;;1.24;1.14;;;;;;;20.44;56.07;99834.95;;;;-60
2019/09/30 04:40:59;;;;;;;1.46;1.06;;;;;;;20.44;56.08;99844.52;;;;-52
2019/09/30 04:43:59;;;;;;;1.01;0.99;;;;;;;20.44;56.08;99851.80;;;;-52
2019/09/30 04:46:59;;;;;;;1.09;1.09;;;;;;;20.44;56.08;99856.59;;;;-51
2019/09/30 04:49:59;;;;;;;1.05;1.00;;;;;;;20.43;56.09;99855.39;;;;-52
2019/09/30 04:52:59;;;;;;;1.17;1.11;;;;;;;20.43;56.07;99869.98;;;;-50
2019/09/30 04:55:59;;;;;;;1.21;1.11;;;;;;;20.42;56.06;99865.18;;;;-50
2019/09/30 04:58:59;;;;;;;1.20;1.10;;;;;;;20.42;56.08;99873.06;;;;-50
2019/09/30 05:01:59;;;;;;;1.20;1.10;;;;;;;20.43;56.08;99870.88;;;;-52
2019/09/30 05:04:59;;;;;;;1.01;1.01;;;;;;;20.43;56.05;99877.29;;;;-52
2019/09/30 05:07:59;;;;;;;1.05;1.01;;;;;;;20.42;56.05;99881.02;;;;-51
2019/09/30 05:10:59;;;;;;;1.00;1.00;;;;;;;20.43;56.07;99882.62;;;;-51
2019/09/30 05:13:59;;;;;;;1.17;0.99;;;;;;;20.42;56.03;99884.70;;;;-51
2019/09/30 05:16:59;;;;;;;1.02;1.02;;;;;;;20.42;56.05;99891.65;;;;-52
2019/09/30 05:19:59;;;;;;;1.15;1.01;;;;;;;20.42;56.06;99900.30;;;;-51
2019/09/30 05:22:59;;;;;;;1.05;1.03;;;;;;;20.41;56.02;99911.78;;;;-51
2019/09/30 05:25:59;;;;;;;1.29;1.07;;;;;;;20.42;56.00;99915.16;;;;-52
2019/09/30 05:28:59;;;;;;;1.11;1.02;;;;;;;20.42;56.04;99918.75;;;;-52
2019/09/30 05:31:59;;;;;;;1.11;1.11;;;;;;;20.41;56.04;99923.92;;;;-51
2019/09/30 05:34:59;;;;;;;0.99;0.99;;;;;;;20.41;56.04;99934.08;;;;-52
2019/09/30 05:37:59;;;;;;;1.00;1.00;;;;;;;20.41;56.02;99945.48;;;;-51
2019/09/30 05:40:59;;;;;;;1.29;1.18;;;;;;;20.41;56.01;99957.80;;;;-51
2019/09/30 05:43:59;;;;;;;1.08;1.01;;;;;;;20.42;56.01;99947.50;;;;-53
2019/09/30 05:46:59;;;;;;;0.91;0.91;;;;;;;20.41;56.03;99959.88;;;;-51
2019/09/30 05:49:59;;;;;;;1.02;0.98;;;;;;;20.42;56.04;99969.06;;;;-52
2019/09/30 05:52:59;;;;;;;1.13;1.02;;;;;;;20.40;55.99;99976.31;;;;-52
2019/09/30 05:55:59;;;;;;;1.11;1.01;;;;;;;20.41;56.02;99992.92;;;;-51
2019/09/30 05:58:59;;;;;;;1.03;1.03;;;;;;;20.40;56.01;99994.27;;;;-52
2019/09/30 06:01:59;;;;;;;1.20;1.10;;;;;;;20.41;56.00;100003.75;;;;-52
2019/09/30 06:04:59;;;;;;;0.97;0.96;;;;;;;20.41;56.01;99998.72;;;;-51
2019/09/30 06:07:59;;;;;;;1.26;1.16;;;;;;;20.41;56.03;100003.83;;;;-52
2019/09/30 06:10:59;;;;;;;1.11;1.00;;;;;;;20.40;56.00;100008.69;;;;-52
2019/09/30 06:13:59;;;;;;;1.70;1.00;;;;;;;20.40;56.01;100020.49;;;;-51
2019/09/30 06:17:08;;;;;;;1.48;1.07;;;;;;;20.40;56.01;100021.27;;;;-51
2019/09/30 06:19:59;;;;;;;1.12;0.97;;;;;;;20.40;56.00;100034.84;;;;-51
2019/09/30 06:22:59;;;;;;;1.02;1.01;;;;;;;20.40;56.02;100039.11;;;;-51
2019/09/30 06:25:59;;;;;;;2.14;1.13;;;;;;;20.41;56.01;100049.88;;;;-52
2019/09/30 06:28:59;;;;;;;1.15;1.07;;;;;;;20.41;55.99;100055.58;;;;-52
2019/09/30 06:31:59;;;;;;;1.13;1.01;;;;;;;20.40;56.00;100065.78;;;;-51
2019/09/30 06:34:59;;;;;;;1.12;1.05;;;;;;;20.40;56.01;100070.23;;;;-52
2019/09/30 06:37:59;;;;;;;1.03;1.00;;;;;;;20.41;56.00;100070.51;;;;-52
2019/09/30 06:40:59;;;;;;;1.19;1.09;;;;;;;20.40;56.00;100080.03;;;;-51
2019/09/30 06:43:59;;;;;;;0.90;0.90;;;;;;;20.40;56.01;100087.81;;;;-52
2019/09/30 06:46:59;;;;;;;0.90;0.90;;;;;;;20.40;56.01;100097.41;;;;-52
2019/09/30 06:49:59;;;;;;;1.61;1.10;;;;;;;20.40;56.06;100107.54;;;;-51
2019/09/30 06:52:59;;;;;;;0.90;0.90;;;;;;;20.42;56.00;100114.89;;;;-51
2019/09/30 06:55:59;;;;;;;1.52;1.05;;;;;;;20.43;56.06;100117.88;;;;-49
2019/09/30 06:58:59;;;;;;;1.20;1.10;;;;;;;20.43;56.13;100119.83;;;;-49
2019/09/30 07:01:58;;;;;;;1.16;1.10;;;;;;;20.44;56.09;100123.95;;;;-49
2019/09/30 07:04:59;;;;;;;1.27;1.05;;;;;;;20.43;56.09;100125.86;;;;-49
2019/09/30 07:07:59;;;;;;;0.93;0.93;;;;;;;20.43;56.10;100133.48;;;;-49
2019/09/30 07:10:59;;;;;;;1.61;1.08;;;;;;;20.45;56.19;100138.91;;;;-48
2019/09/30 07:13:59;;;;;;;1.12;1.03;;;;;;;20.46;56.26;100142.47;;;;-50
2019/09/30 07:16:59;;;;;;;2.55;1.24;;;;;;;20.49;56.33;100155.66;;;;-49
2019/09/30 07:19:59;;;;;;;2.43;1.11;;;;;;;20.51;56.48;100151.98;;;;-53
2019/09/30 07:22:59;;;;;;;3.56;1.23;;;;;;;20.55;56.90;100157.28;;;;-49
2019/09/30 07:25:59;;;;;;;2.92;1.35;;;;;;;20.57;56.93;100164.34;;;;-49
2019/09/30 07:28:58;;;;;;;3.82;1.20;;;;;;;20.59;57.02;100172.42;;;;-51
2019/09/30 07:31:59;;;;;;;3.27;1.41;;;;;;;20.57;56.68;100172.22;;;;-51
2019/09/30 07:34:59;;;;;;;1.92;1.16;;;;;;;20.56;56.60;100179.63;;;;-51
2019/09/30 07:37:59;;;;;;;2.61;1.26;;;;;;;20.55;56.56;100179.27;;;;-51
2019/09/30 07:41:03;;;;;;;2.03;1.15;;;;;;;20.55;56.88;100188.83;;;;-50
2019/09/30 07:43:59;;;;;;;2.21;1.22;;;;;;;20.54;56.68;100194.93;;;;-51
2019/09/30 07:46:59;;;;;;;2.03;1.19;;;;;;;20.54;56.58;100196.84;;;;-51
2019/09/30 07:50:00;;;;;;;2.14;1.51;;;;;;;20.53;56.53;100198.15;;;;-51
2019/09/30 07:52:59;;;;;;;3.70;1.19;;;;;;;20.54;56.53;100204.29;;;;-53
2019/09/30 07:55:59;;;;;;;2.21;1.20;;;;;;;20.53;56.54;100203.95;;;;-53
2019/09/30 07:58:59;;;;;;;3.15;1.21;;;;;;;20.52;56.49;100211.30;;;;-53
2019/09/30 08:01:59;;;;;;;2.00;1.29;;;;;;;20.51;56.50;100217.06;;;;-52
2019/09/30 08:04:59;;;;;;;6.02;1.25;;;;;;;20.51;56.47;100227.97;;;;-52
2019/09/30 08:07:59;;;;;;;1.49;1.13;;;;;;;20.50;56.46;100232.46;;;;-53
2019/09/30 08:10:59;;;;;;;1.66;1.14;;;;;;;20.51;56.41;100237.33;;;;-49
2019/09/30 08:13:59;;;;;;;1.17;1.06;;;;;;;20.49;56.39;100238.97;;;;-49
2019/09/30 08:16:59;;;;;;;2.17;1.26;;;;;;;20.49;56.44;100241.66;;;;-49
2019/09/30 08:19:59;;;;;;;1.55;1.13;;;;;;;20.48;56.40;100250.17;;;;-49
2019/09/30 08:22:59;;;;;;;1.21;1.10;;;;;;;20.49;56.39;100256.28;;;;-49
2019/09/30 08:25:59;;;;;;;1.15;1.09;;;;;;;20.49;56.41;100255.95;;;;-49
2019/09/30 08:28:59;;;;;;;2.45;1.11;;;;;;;20.48;56.34;100256.08;;;;-49
2019/09/30 08:31:59;;;;;;;1.34;1.20;;;;;;;20.47;56.31;100251.95;;;;-51
2019/09/30 08:34:59;;;;;;;1.49;1.15;;;;;;;20.47;56.32;100254.22;;;;-51
2019/09/30 08:37:59;;;;;;;2.33;1.11;;;;;;;20.47;56.30;100255.67;;;;-51
2019/09/30 08:40:59;;;;;;;1.79;1.18;;;;;;;20.47;56.33;100260.60;;;;-50
2019/09/30 08:43:59;;;;;;;1.78;1.21;;;;;;;20.46;56.27;100263.69;;;;-58
2019/09/30 08:46:58;;;;;;;1.69;1.20;;;;;;;20.46;56.25;100270.30;;;;-58
2019/09/30 08:49:59;;;;;;;1.31;1.10;;;;;;;20.46;56.24;100277.17;;;;-51
2019/09/30 08:52:59;;;;;;;2.77;1.25;;;;;;;20.46;56.23;100273.31;;;;-50
2019/09/30 08:55:59;;;;;;;2.77;1.30;;;;;;;20.46;56.21;100278.75;;;;-49
2019/09/30 08:58:59;;;;;;;1.93;1.20;;;;;;;20.46;56.22;100283.21;;;;-58
2019/09/30 09:01:59;;;;;;;1.50;1.16;;;;;;;20.45;56.22;100283.23;;;;-53
2019/09/30 09:04:58;;;;;;;1.36;1.14;;;;;;;20.45;56.26;100280.83;;;;-52
2019/09/30 09:07:59;;;;;;;1.48;1.14;;;;;;;20.46;56.27;100290.53;;;;-54
2019/09/30 09:10:59;;;;;;;2.71;1.23;;;;;;;20.47;56.22;100289.28;;;;-53
2019/09/30 09:13:59;;;;;;;1.79;1.22;;;;;;;20.47;56.22;100288.28;;;;-54
2019/09/30 09:16:59;;;;;;;1.31;1.19;;;;;;;20.46;56.30;100288.41;;;;-59
2019/09/30 09:19:59;;;;;;;1.53;1.19;;;;;;;20.45;56.26;100286.97;;;;-49
2019/09/30 09:22:59;;;;;;;2.44;1.37;;;;;;;20.46;56.23;100289.59;;;;-49
2019/09/30 09:25:59;;;;;;;2.60;1.24;;;;;;;20.45;56.27;100287.70;;;;-49
2019/09/30 09:28:59;;;;;;;3.74;1.30;;;;;;;20.45;56.25;100290.89;;;;-50
2019/09/30 09:31:59;;;;;;;2.06;1.12;;;;;;;20.45;56.21;100302.63;;;;-51
2019/09/30 09:34:59;;;;;;;1.29;1.19;;;;;;;20.44;56.22;100309.98;;;;-53
2019/09/30 09:37:59;;;;;;;1.88;1.15;;;;;;;20.44;56.23;100305.37;;;;-54
2019/09/30 09:40:59;;;;;;;2.33;1.11;;;;;;;20.44;56.25;100312.42;;;;-55
2019/09/30 09:43:59;;;;;;;2.66;1.22;;;;;;;20.44;56.22;100317.09;;;;-54
2019/09/30 09:46:59;;;;;;;1.40;1.20;;;;;;;20.44;56.21;100314.84;;;;-50
2019/09/30 09:49:58;;;;;;;1.30;1.20;;;;;;;20.43;56.20;100316.58;;;;-51
2019/09/30 09:52:58;;;;;;;1.88;1.25;;;;;;;20.43;56.24;100323.86;;;;-50
2019/09/30 09:55:59;;;;;;;1.39;1.10;;;;;;;20.43;56.21;100321.67;;;;-49
2019/09/30 09:58:59;;;;;;;1.55;1.12;;;;;;;20.43;56.22;100327.28;;;;-49
2019/09/30 10:01:59;;;;;;;1.13;1.03;;;;;;;20.42;56.21;100328.28;;;;-49
2019/09/30 10:04:59;;;;;;;1.32;1.22;;;;;;;20.42;56.22;100329.69;;;;-49
2019/09/30 10:07:59;;;;;;;1.69;1.23;;;;;;;20.43;56.22;100337.28;;;;-49
2019/09/30 10:10:59;;;;;;;1.74;1.07;;;;;;;20.41;56.21;100342.97;;;;-50
2019/09/30 10:13:59;;;;;;;1.61;1.15;;;;;;;20.41;56.23;100356.93;;;;-49
2019/09/30 10:16:59;;;;;;;1.25;1.15;;;;;;;20.41;56.19;100343.34;;;;-49
2019/09/30 10:19:58;;;;;;;1.78;1.20;;;;;;;20.41;56.16;100352.80;;;;-49
2019/09/30 10:22:59;;;;;;;1.82;1.15;;;;;;;20.42;56.13;100355.52;;;;-59
2019/09/30 10:25:58;;;;;;;1.04;0.96;;;;;;;20.41;56.19;100361.96;;;;-59
2019/09/30 10:28:59;;;;;;;1.85;1.16;;;;;;;20.41;56.19;100366.72;;;;-60
2019/09/30 10:31:59;;;;;;;1.23;1.13;;;;;;;20.41;56.18;100364.88;;;;-59
2019/09/30 10:34:59;;;;;;;1.22;1.09;;;;;;;20.41;56.18;100363.37;;;;-50
2019/09/30 10:37:59;;;;;;;1.34;1.08;;;;;;;20.41;56.18;100373.94;;;;-50
2019/09/30 10:40:59;;;;;;;1.07;0.99;;;;;;;20.41;56.16;100375.88;;;;-59
2019/09/30 10:43:58;;;;;;;1.13;1.00;;;;;;;20.40;56.16;100369.20;;;;-59
2019/09/30 10:46:59;;;;;;;1.39;1.11;;;;;;;20.40;56.16;100373.56;;;;-49
2019/09/30 10:49:58;;;;;;;1.00;1.00;;;;;;;20.40;56.17;100387.92;;;;-51
2019/09/30 10:52:59;;;;;;;1.21;1.10;;;;;;;20.40;56.16;100378.09;;;;-54
2019/09/30 10:55:59;;;;;;;1.31;1.21;;;;;;;20.40;56.12;100382.89;;;;-53
2019/09/30 10:58:59;;;;;;;1.27;1.17;;;;;;;20.40;56.11;100384.86;;;;-53
2019/09/30 11:01:59;;;;;;;1.81;1.25;;;;;;;20.39;56.08;100371.61;;;;-49
2019/09/30 11:04:58;;;;;;;1.27;1.17;;;;;;;20.40;56.12;100377.31;;;;-49
2019/09/30 11:07:59;;;;;;;1.28;1.11;;;;;;;20.39;56.16;100373.63;;;;-51
2019/09/30 11:10:59;;;;;;;1.34;1.17;;;;;;;20.39;56.15;100372.34;;;;-50
2019/09/30 11:13:59;;;;;;;2.72;1.03;;;;;;;20.39;56.09;100363.63;;;;-50
2019/09/30 11:16:59;;;;;;;1.41;1.10;;;;;;;20.39;56.12;100363.63;;;;-50
2019/09/30 11:19:58;;;;;;;1.31;0.82;;;;;;;20.39;56.09;100366.91;;;;-49
2019/09/30 11:22:59;;;;;;;1.06;0.93;;;;;;;20.40;56.15;100365.51;;;;-49
2019/09/30 11:25:58;;;;;;;1.20;1.10;;;;;;;20.39;56.10;100363.22;;;;-49
2019/09/30 11:28:59;;;;;;;1.55;1.19;;;;;;;20.39;56.11;100369.27;;;;-49
2019/09/30 11:31:59;;;;;;;1.70;1.10;;;;;;;20.39;56.10;100357.25;;;;-49
2019/09/30 11:34:59;;;;;;;1.22;1.12;;;;;;;20.38;56.12;100351.44;;;;-49
2019/09/30 11:37:59;;;;;;;1.00;1.00;;;;;;;20.37;56.11;100359.45;;;;-49
2019/09/30 11:40:59;;;;;;;2.08;1.07;;;;;;;20.38;56.15;100363.19;;;;-50
2019/09/30 11:43:58;;;;;;;1.36;1.10;;;;;;;20.38;56.13;100371.13;;;;-50
2019/09/30 11:46:59;;;;;;;1.19;1.09;;;;;;;20.37;56.15;100376.40;;;;-50
2019/09/30 11:49:59;;;;;;;1.63;1.07;;;;;;;20.38;56.11;100366.03;;;;-53
2019/09/30 11:52:59;;;;;;;1.19;1.10;;;;;;;20.38;56.09;100370.13;;;;-50
2019/09/30 11:55:59;;;;;;;0.97;0.95;;;;;;;20.37;56.08;100362.14;;;;-53
2019/09/30 11:58:59;;;;;;;0.94;0.90;;;;;;;20.37;56.07;100364.66;;;;-54
2019/09/30 12:01:59;;;;;;;1.52;1.16;;;;;;;20.37;56.09;100363.14;;;;-49
2019/09/30 12:04:58;;;;;;;1.43;1.17;;;;;;;20.36;56.07;100360.25;;;;-49
2019/09/30 12:07:59;;;;;;;1.82;1.21;;;;;;;20.37;56.05;100361.37;;;;-49
2019/09/30 12:10:59;;;;;;;1.10;1.03;;;;;;;20.36;56.09;100366.19;;;;-49
2019/09/30 12:13:59;;;;;;;1.29;1.19;;;;;;;20.37;56.06;100369.85;;;;-49
2019/09/30 12:16:59;;;;;;;1.01;1.00;;;;;;;20.36;56.10;100364.69;;;;-49
2019/09/30 12:19:58;;;;;;;2.21;1.11;;;;;;;20.36;56.03;100362.00;;;;-49
2019/09/30 12:22:58;;;;;;;1.17;1.00;;;;;;;20.36;56.04;100361.77;;;;-50
2019/09/30 12:26:00;;;;;;;1.12;1.02;;;;;;;20.38;56.08;100366.54;;;;-48
2019/09/30 12:28:59;;;;;;;1.13;1.03;;;;;;;20.40;56.21;100364.84;;;;-48
2019/09/30 12:31:59;;;;;;;3.75;1.18;;;;;;;20.44;56.34;100364.39;;;;-49
2019/09/30 12:34:59;;;;;;;3.33;1.23;;;;;;;20.48;56.54;100361.42;;;;-51
2019/09/30 12:37:59;;;;;;;4.37;1.27;;;;;;;20.50;56.45;100364.33;;;;-47
2019/09/30 12:40:59;;;;;;;2.59;1.24;;;;;;;20.51;56.39;100367.45;;;;-48
2019/09/30 12:43:58;;;;;;;4.39;1.27;;;;;;;20.54;56.55;100363.10;;;;-49
2019/09/30 12:46:59;;;;;;;5.16;1.21;;;;;;;20.56;56.54;100358.31;;;;-58
2019/09/30 12:49:59;;;;;;;4.95;1.22;;;;;;;20.58;56.51;100363.99;;;;-58
2019/09/30 12:52:59;;;;;;;3.73;1.21;;;;;;;20.58;56.55;100364.27;;;;-64
2019/09/30 12:55:59;;;;;;;3.24;1.22;;;;;;;20.59;56.51;100359.70;;;;-57
2019/09/30 12:58:58;;;;;;;2.78;1.26;;;;;;;20.60;56.50;100360.66;;;;-60
2019/09/30 13:01:59;;;;;;;2.67;1.37;;;;;;;20.62;56.33;100360.89;;;;-61
2019/09/30 13:04:59;;;;;;;3.83;1.20;;;;;;;20.63;56.50;100370.50;;;;-59
2019/09/30 13:07:58;;;;;;;4.53;1.32;;;;;;;20.64;56.37;100368.18;;;;-64
2019/09/30 13:10:59;;;;;;;3.27;1.30;;;;;;;20.66;56.32;100370.01;;;;-59
2019/09/30 13:13:59;;;;;;;1.31;1.18;;;;;;;20.66;56.41;100388.80;;;;-58
2019/09/30 13:16:59;;;;;;;3.69;1.27;;;;;;;20.65;56.38;100383.73;;;;-56
2019/09/30 13:19:59;;;;;;;2.06;1.30;;;;;;;20.68;56.41;100383.50;;;;-56
2019/09/30 13:22:58;;;;;;;6.05;1.22;;;;;;;20.68;56.42;100395.59;;;;-53
2019/09/30 13:25:58;;;;;;;1.89;1.11;;;;;;;20.69;56.42;100382.37;;;;-57
2019/09/30 13:28:59;;;;;;;2.07;1.25;;;;;;;20.69;56.39;100390.42;;;;-58
2019/09/30 13:31:58;;;;;;;1.91;1.26;;;;;;;20.70;56.47;100384.70;;;;-59
2019/09/30 13:34:59;;;;;;;1.98;1.23;;;;;;;20.72;56.34;100387.69;;;;-60
2019/09/30 13:37:59;;;;;;;3.92;1.37;;;;;;;20.73;56.45;100391.66;;;;-54
2019/09/30 13:40:59;;;;;;;3.56;1.13;;;;;;;20.73;56.43;100379.77;;;;-53
2019/09/30 13:43:58;;;;;;;3.64;1.40;;;;;;;20.75;56.37;100377.46;;;;-56
2019/09/30 13:46:58;;;;;;;2.31;1.15;;;;;;;20.74;56.43;100388.03;;;;-55
2019/09/30 13:49:59;;;;;;;1.63;1.07;;;;;;;20.76;56.48;100391.60;;;;-50
2019/09/30 13:53:00;;;;;;;1.55;1.21;;;;;;;20.76;56.43;100393.14;;;;-47
2019/09/30 13:55:59;;;;;;;4.05;1.31;;;;;;;20.77;56.42;100405.94;;;;-49
2019/09/30 13:58:59;;;;;;;1.71;1.19;;;;;;;20.77;56.52;100402.42;;;;-51
2019/09/30 14:01:59;;;;;;;3.22;1.09;;;;;;;20.78;56.49;100404.53;;;;-50
2019/09/30 14:04:59;;;;;;;2.23;1.29;;;;;;;20.79;56.37;100405.48;;;;-49
2019/09/30 14:07:58;;;;;;;1.43;1.11;;;;;;;20.80;56.46;100405.88;;;;-53
2019/09/30 14:10:59;;;;;;;2.54;1.10;;;;;;;20.81;56.42;100405.59;;;;-52
2019/09/30 14:13:59;;;;;;;3.46;1.35;;;;;;;20.81;56.47;100410.79;;;;-50
2019/09/30 14:16:59;;;;;;;4.17;1.22;;;;;;;20.82;56.39;100407.30;;;;-50
2019/09/30 14:19:59;;;;;;;2.47;1.19;;;;;;;20.81;56.40;100406.46;;;;-49
2019/09/30 14:22:58;;;;;;;4.50;1.13;;;;;;;20.83;56.41;100404.22;;;;-51
2019/09/30 14:25:58;;;;;;;1.60;1.22;;;;;;;20.83;56.42;100404.42;;;;-50
2019/09/30 14:28:59;;;;;;;1.69;1.24;;;;;;;20.82;56.39;100388.54;;;;-51
2019/09/30 14:31:59;;;;;;;3.94;1.17;;;;;;;20.83;56.45;100389.55;;;;-56
2019/09/30 14:34:59;;;;;;;1.49;1.28;;;;;;;20.83;56.47;100387.03;;;;-55
2019/09/30 14:37:59;;;;;;;1.45;1.14;;;;;;;20.83;56.43;100379.01;;;;-52
2019/09/30 14:40:58;;;;;;;2.07;1.20;;;;;;;20.84;56.40;100381.39;;;;-51
2019/09/30 14:43:58;;;;;;;2.75;1.23;;;;;;;20.86;56.52;100383.38;;;;-53
2019/09/30 14:46:58;;;;;;;3.35;1.30;;;;;;;20.86;56.33;100379.32;;;;-53
2019/09/30 14:49:59;;;;;;;1.78;1.21;;;;;;;20.86;56.45;100376.57;;;;-53
2019/09/30 14:52:59;;;;;;;1.33;1.02;;;;;;;20.84;56.28;100375.02;;;;-54
2019/09/30 14:55:59;;;;;;;4.07;1.41;;;;;;;20.84;56.35;100367.87;;;;-51
2019/09/30 14:58:59;;;;;;;2.09;1.25;;;;;;;20.85;56.36;100366.73;;;;-53
2019/09/30 15:01:58;;;;;;;3.44;1.26;;;;;;;20.87;56.19;100367.94;;;;-50
2019/09/30 15:04:59;;;;;;;3.81;1.31;;;;;;;20.85;56.28;100365.05;;;;-50
2019/09/30 15:07:59;;;;;;;1.41;1.04;;;;;;;20.85;56.19;100365.72;;;;-51
2019/09/30 15:10:59;;;;;;;3.30;1.19;;;;;;;20.84;56.16;100362.77;;;;-50
2019/09/30 15:13:59;;;;;;;2.74;1.21;;;;;;;20.84;56.16;100368.81;;;;-50
2019/09/30 15:16:59;;;;;;;2.60;1.31;;;;;;;20.83;56.08;100368.44;;;;-51
2019/09/30 15:19:58;;;;;;;2.77;1.13;;;;;;;20.83;56.16;100358.59;;;;-50
2019/09/30 15:22:59;;;;;;;2.77;1.21;;;;;;;20.84;56.22;100356.72;;;;-50
2019/09/30 15:25:59;;;;;;;2.13;1.25;;;;;;;20.84;56.30;100353.37;;;;-49
2019/09/30 15:28:58;;;;;;;7.63;1.59;;;;;;;20.86;56.12;100349.27;;;;-50
2019/09/30 15:31:59;;;;;;;4.88;1.41;;;;;;;20.87;56.20;100344.64;;;;-50
2019/09/30 15:34:59;;;;;;;5.27;1.49;;;;;;;20.87;56.14;100340.25;;;;-50
2019/09/30 15:37:59;;;;;;;6.59;1.54;;;;;;;20.87;56.15;100347.16;;;;-50
2019/09/30 15:40:59;;;;;;;4.99;1.40;;;;;;;20.86;56.11;100356.26;;;;-50
2019/09/30 15:43:58;;;;;;;6.42;1.58;;;;;;;20.86;56.25;100362.20;;;;-52
2019/09/30 15:46:59;;;;;;;4.77;1.41;;;;;;;20.87;56.25;100359.48;;;;-50
2019/09/30 15:49:59;;;;;;;4.63;1.41;;;;;;;20.89;56.29;100368.80;;;;-49
2019/09/30 15:52:59;;;;;;;2.67;1.40;;;;;;;20.90;56.42;100372.29;;;;-52
2019/09/30 15:55:58;;;;;;;8.75;1.48;;;;;;;20.90;56.63;100371.02;;;;-53
2019/09/30 15:58:59;;;;;;;4.50;1.47;;;;;;;20.92;56.54;100373.27;;;;-51
2019/09/30 16:01:59;;;;;;;4.96;1.45;;;;;;;20.93;56.60;100371.12;;;;-51
2019/09/30 16:04:59;;;;;;;6.56;1.39;;;;;;;20.94;56.78;100373.28;;;;-47
2019/09/30 16:07:59;;;;;;;6.25;1.40;;;;;;;20.93;56.61;100369.55;;;;-47
2019/09/30 16:10:58;;;;;;;5.23;1.47;;;;;;;20.93;56.60;100373.24;;;;-47
2019/09/30 16:13:59;;;;;;;4.71;1.66;;;;;;;20.92;56.53;100373.54;;;;-47
2019/09/30 16:16:59;;;;;;;3.39;1.27;;;;;;;20.92;56.39;100378.70;;;;-47
2019/09/30 16:19:59;;;;;;;4.01;1.55;;;;;;;20.92;56.38;100375.28;;;;-47
2019/09/30 16:22:58;;;;;;;2.27;1.27;;;;;;;20.91;56.32;100377.16;;;;-47
2019/09/30 16:25:59;;;;;;;2.62;1.39;;;;;;;20.90;56.32;100385.45;;;;-47
2019/09/30 16:28:59;;;;;;;3.85;1.39;;;;;;;20.89;56.25;100385.68;;;;-47
2019/09/30 16:31:59;;;;;;;3.34;1.27;;;;;;;20.88;56.26;100383.20;;;;-47
2019/09/30 16:34:58;;;;;;;4.17;1.19;;;;;;;20.88;56.20;100377.38;;;;-46
2019/09/30 16:37:58;;;;;;;1.85;1.25;;;;;;;20.88;56.16;100378.33;;;;-47
2019/09/30 16:40:58;;;;;;;4.85;1.35;;;;;;;20.88;56.29;100379.44;;;;-57
2019/09/30 16:43:59;;;;;;;5.51;1.54;;;;;;;20.89;56.43;100379.37;;;;-60
2019/09/30 16:46:58;;;;;;;2.61;1.47;;;;;;;20.92;56.51;100381.56;;;;-58